Terminal Aerodrome Forecast
Issued by NWS Sioux Falls, SD

Home | Current Version | Previous Version | Text Only | Print | Product List | Glossary Off
Versions: 1 2 3 4 5 6 7 8 9 10 11 12 13 14 15 16 17 18 19 20 21 22 23

000
FTUS43 KFSD 300520
TAFSUX
TAF
KSUX 300520Z 3006/3106 VRB04KT P6SM SKC
     FM301300 22008KT P6SM SCT120
     FM301500 25015G22KT P6SM SCT200
     FM310000 31005KT P6SM SCT200=

USA.gov is the U.S. government's official web portal to all federal, state and local government web resources and services.